Time;durP1;ratioP1;P1;durP2;ratioP2;P2;SDS_P1;SDS_P2;PMS_P1;PMS_P2;Temp;Humidity;BMP_temperature;BMP_pressure;BME280_temperature;BME280_humidity;BME280_pressure;Samples;Min_cycle;Max_cycle;Signal;HPM_P1;HPM_P2
2022/06/27 00:01:10;;;;;;;9.45;6.10;;;;;;;21.02;57.43;101449.53;4903417;28;119590;-68
2022/06/27 00:03:37;;;;;;;7.82;5.85;;;;;;;21.02;57.58;101454.91;4900150;28;118761;-68
2022/06/27 00:06:04;;;;;;;9.50;5.93;;;;;;;21.03;57.45;101456.59;4901101;28;124237;-68
2022/06/27 00:08:34;;;;;;;8.38;6.03;;;;;;;21.03;57.46;101459.31;4903269;28;124158;-69
2022/06/27 00:11:02;;;;;;;10.93;6.03;;;;;;;21.02;57.40;101454.91;4899868;28;119336;-69
2022/06/27 00:13:29;;;;;;;10.00;6.20;;;;;;;21.03;57.62;101455.75;4909098;28;118111;-69
2022/06/27 00:15:57;;;;;;;10.65;6.30;;;;;;;21.03;57.50;101456.59;4896192;28;124048;-70
2022/06/27 00:18:31;;;;;;;8.13;6.22;;;;;;;21.04;57.23;101469.09;4901797;28;124101;-69
2022/06/27 00:20:59;;;;;;;9.10;6.13;;;;;;;21.05;57.60;101476.19;4896950;28;121477;-70
2022/06/27 00:23:26;;;;;;;9.02;5.97;;;;;;;21.05;57.71;101481.56;4902200;28;120605;-70
2022/06/27 00:25:53;;;;;;;6.95;6.20;;;;;;;21.07;57.67;101479.63;4899849;28;124223;-71
2022/06/27 00:28:20;;;;;;;8.02;5.90;;;;;;;21.09;57.63;101490.28;4902707;28;124373;-71
2022/06/27 00:30:48;;;;;;;7.32;6.20;;;;;;;21.10;57.80;101500.94;4901989;28;119398;-70
2022/06/27 00:33:15;;;;;;;10.48;5.82;;;;;;;21.11;57.75;101502.63;4902259;28;119633;-71
2022/06/27 00:35:42;;;;;;;10.95;6.97;;;;;;;21.12;57.74;101507.06;4908273;28;123468;-70
2022/06/27 00:38:10;;;;;;;8.43;6.47;;;;;;;21.12;57.70;101509.75;4892163;28;124069;-71
2022/06/27 00:40:37;;;;;;;11.57;6.70;;;;;;;21.12;57.56;101515.13;4904181;28;119626;-71
2022/06/27 00:43:04;;;;;;;9.00;6.07;;;;;;;21.11;57.50;101518.78;4901514;28;118511;-69
2022/06/27 00:45:31;;;;;;;8.48;6.45;;;;;;;21.11;57.44;101507.16;4902246;28;124397;-69
2022/06/27 00:47:59;;;;;;;10.13;6.25;;;;;;;21.10;57.58;101506.31;4908316;28;122795;-69
2022/06/27 00:50:26;;;;;;;8.85;6.18;;;;;;;21.11;57.60;101518.78;4907048;28;118651;-69
2022/06/27 00:52:54;;;;;;;8.98;5.50;;;;;;;21.12;57.78;101519.69;4899507;28;119975;-68
2022/06/27 00:55:21;;;;;;;8.93;6.38;;;;;;;21.12;57.73;101514.28;4899409;28;124860;-69
2022/06/27 00:57:50;;;;;;;9.55;6.40;;;;;;;21.12;57.72;101509.75;4900805;28;123064;-68
2022/06/27 01:00:17;;;;;;;8.70;6.07;;;;;;;21.14;57.77;101510.47;4907524;28;118716;-68
2022/06/27 01:02:45;;;;;;;9.25;6.45;;;;;;;21.15;57.38;101504.13;4901965;28;119669;-68
2022/06/27 01:05:13;;;;;;;8.25;6.45;;;;;;;21.15;57.31;101492.47;4907192;28;122879;-68
2022/06/27 01:07:40;;;;;;;10.55;6.97;;;;;;;21.16;57.51;101496.91;4907900;28;122820;-69
2022/06/27 01:10:08;;;;;;;8.15;6.10;;;;;;;21.14;57.37;101497.00;4904448;28;122476;-69
2022/06/27 01:12:39;;;;;;;8.38;6.20;;;;;;;21.12;57.29;101509.75;4905303;28;120422;-70
2022/06/27 01:15:10;;;;;;;8.48;6.40;;;;;;;21.11;57.57;101508.03;4914822;28;123685;-69
2022/06/27 01:17:38;;;;;;;9.43;6.03;;;;;;;21.10;57.63;101495.53;4903431;28;123232;-69
2022/06/27 01:20:06;;;;;;;8.52;5.82;;;;;;;21.11;57.46;101496.41;4900997;28;119352;-69
2022/06/27 01:22:35;;;;;;;8.75;6.30;;;;;;;21.11;57.25;101502.63;4896239;28;119138;-68
2022/06/27 01:25:05;;;;;;;9.07;6.80;;;;;;;21.10;57.28;101500.09;4898771;28;125057;-69
2022/06/27 01:27:33;;;;;;;8.25;6.20;;;;;;;21.09;57.15;101493.81;4920029;28;123353;-69
2022/06/27 01:30:02;;;;;;;7.80;5.85;;;;;;;21.07;57.30;101485.00;4902008;28;119697;-68
2022/06/27 01:32:31;;;;;;;8.20;6.13;;;;;;;21.07;57.22;101478.78;4898796;28;118254;-68
2022/06/27 01:34:59;;;;;;;8.25;6.20;;;;;;;21.05;57.50;101475.34;4901068;28;98410;-68
2022/06/27 01:37:26;;;;;;;9.05;5.95;;;;;;;21.06;57.53;101475.22;4898896;28;122835;-68
2022/06/27 01:39:54;;;;;;;8.82;5.90;;;;;;;21.05;57.51;101476.19;4886048;28;118588;-69
2022/06/27 01:42:22;;;;;;;8.93;6.00;;;;;;;21.05;57.60;101462.72;4920534;28;118269;-69
2022/06/27 01:44:51;;;;;;;9.25;6.82;;;;;;;21.06;57.80;101461.75;4902701;28;123871;-69
2022/06/27 01:47:18;;;;;;;8.00;5.50;;;;;;;21.06;57.61;101472.53;4905421;28;123111;-69
2022/06/27 01:49:53;;;;;;;7.60;5.68;;;;;;;21.05;57.77;101470.81;4921010;28;121057;-69
2022/06/27 01:52:24;;;;;;;8.30;6.22;;;;;;;21.06;57.95;101466.25;4905255;28;117983;-69
2022/06/27 01:54:54;;;;;;;8.80;6.85;;;;;;;21.05;57.74;101453.78;4907621;28;123377;-69
2022/06/27 01:57:23;;;;;;;7.15;5.82;;;;;;;21.04;57.94;101450.25;4907609;28;123150;-69
2022/06/27 01:59:52;;;;;;;9.48;6.18;;;;;;;21.03;58.04;101453.91;4898421;28;118223;-69
2022/06/27 02:02:19;;;;;;;9.40;7.18;;;;;;;21.02;57.96;101449.53;4888306;28;119652;-68
2022/06/27 02:04:48;;;;;;;9.82;6.63;;;;;;;21.00;58.14;101446.06;4899548;28;123373;-68
2022/06/27 02:07:17;;;;;;;11.07;7.45;;;;;;;20.99;58.51;101444.38;4896933;28;124083;-68
2022/06/27 02:09:45;;;;;;;10.38;7.40;;;;;;;20.98;58.24;101442.63;4903761;28;118208;-68
2022/06/27 02:12:18;;;;;;;12.18;7.45;;;;;;;20.98;58.33;101442.63;4918847;28;117720;-68
2022/06/27 02:14:52;;;;;;;10.93;7.53;;;;;;;20.97;58.39;101446.34;4901815;28;123694;-68
2022/06/27 02:17:29;;;;;;;9.27;7.28;;;;;;;20.97;58.44;101457.94;4907965;28;126819;-69
2022/06/27 02:19:57;;;;;;;9.02;7.00;;;;;;;20.97;58.25;101454.41;4899444;28;118184;-68
2022/06/27 02:22:25;;;;;;;8.65;7.38;;;;;;;20.98;58.33;101458.81;4911139;28;119052;-69
2022/06/27 02:24:52;;;;;;;9.57;7.10;;;;;;;20.97;58.40;101444.47;4922015;28;123177;-69
2022/06/27 02:27:20;;;;;;;9.00;7.13;;;;;;;20.98;58.21;101437.25;4902147;28;122963;-69
2022/06/27 02:29:47;;;;;;;10.48;7.10;;;;;;;20.98;58.37;101437.25;4919872;28;118452;-69
2022/06/27 02:32:15;;;;;;;9.45;7.00;;;;;;;20.98;58.37;101426.47;4906660;28;118076;-68
2022/06/27 02:34:42;;;;;;;11.82;7.38;;;;;;;20.97;58.29;101414.00;4922669;28;122815;-68
2022/06/27 02:37:12;;;;;;;10.80;7.72;;;;;;;20.96;58.16;101423.06;4901174;28;123224;-69
2022/06/27 02:39:40;;;;;;;9.30;7.18;;;;;;;20.95;58.13;101421.38;4900501;28;119106;-68
2022/06/27 02:42:10;;;;;;;10.88;7.22;;;;;;;20.94;58.14;101422.31;4900462;28;119312;-68
2022/06/27 02:44:39;;;;;;;9.32;7.03;;;;;;;20.93;58.25;101417.94;4899540;28;124838;-68
2022/06/27 02:47:06;;;;;;;8.23;7.00;;;;;;;20.92;58.17;101421.59;4900650;28;124249;-69
2022/06/27 02:49:34;;;;;;;11.15;6.95;;;;;;;20.90;58.24;101418.16;4900608;28;120723;-68
2022/06/27 02:52:26;;;;;;;9.35;6.78;;;;;;;20.87;58.47;101407.63;4892337;28;119286;-69
2022/06/27 02:55:03;;;;;;;;;;;;;;;20.84;58.04;101402.50;4901523;28;124093;-69
2022/06/27 02:57:49;;;;;;;11.75;7.55;;;;;;;20.84;58.29;101402.50;4919846;28;127362;-69
2022/06/27 03:00:26;;;;;;;10.63;7.28;;;;;;;20.84;58.15;101391.75;4892343;28;118929;-69
2022/06/27 03:02:55;;;;;;;11.93;7.32;;;;;;;20.82;58.21;101388.31;4918481;28;117917;-69
2022/06/27 03:05:22;;;;;;;9.48;7.30;;;;;;;20.79;58.19;101384.91;4899405;28;124007;-69
2022/06/27 03:07:51;;;;;;;11.13;7.78;;;;;;;20.77;58.41;101392.22;4907742;28;122948;-69
2022/06/27 03:10:19;;;;;;;9.85;6.65;;;;;;;20.75;58.55;101396.84;4925250;28;119411;-69
2022/06/27 03:12:47;;;;;;;9.75;7.32;;;;;;;20.74;58.41;101389.78;4909883;28;118139;-69
2022/06/27 03:15:14;;;;;;;9.23;6.80;;;;;;;20.72;58.20;101389.03;4899312;28;124299;-69
2022/06/27 03:17:45;;;;;;;10.15;6.97;;;;;;;20.70;58.14;101390.13;4905824;28;122939;-69
2022/06/27 03:20:24;;;;;;;9.95;6.97;;;;;;;20.67;58.08;101377.78;4898666;28;119924;-69
2022/06/27 03:22:56;;;;;;;8.63;6.78;;;;;;;20.62;58.31;101379.97;4889041;28;118235;-69
2022/06/27 03:25:24;;;;;;;8.63;6.80;;;;;;;20.59;58.24;101385.59;4900648;28;123208;-69
2022/06/27 03:27:51;;;;;;;10.32;6.90;;;;;;;20.55;58.20;101370.63;4900518;28;123094;-69
2022/06/27 03:30:18;;;;;;;11.13;7.07;;;;;;;20.52;58.22;101360.13;4906300;28;118207;-69
2022/06/27 03:32:48;;;;;;;10.65;7.35;;;;;;;20.49;58.09;101365.75;4906985;28;118284;-70
2022/06/27 03:35:19;;;;;;;9.07;6.53;;;;;;;20.42;58.33;101360.84;4918204;28;123681;-72
2022/06/27 03:37:47;;;;;;;9.15;6.95;;;;;;;20.38;58.16;101361.19;4905638;28;122939;-71
2022/06/27 03:40:16;;;;;;;12.23;6.57;;;;;;;20.32;58.26;101359.84;4909825;28;119894;-72
2022/06/27 03:42:47;;;;;;;8.38;6.63;;;;;;;20.28;58.30;101363.75;4912577;28;119159;-72
2022/06/27 03:45:14;;;;;;;8.52;6.70;;;;;;;20.23;58.08;101357.88;4904801;28;124200;-71
2022/06/27 03:47:49;;;;;;;12.02;7.18;;;;;;;20.20;58.37;101358.13;4908712;28;123336;-71
2022/06/27 03:50:33;;;;;;;9.05;6.78;;;;;;;20.14;58.39;101350.53;4898764;28;120257;-71
2022/06/27 03:53:01;;;;;;;12.15;6.65;;;;;;;20.10;58.46;101354.41;4909829;28;118861;-71
2022/06/27 03:55:34;;;;;;;9.43;6.95;;;;;;;20.03;58.44;101365.66;4909180;28;123186;-71
2022/06/27 03:58:02;;;;;;;11.25;6.82;;;;;;;19.97;58.71;101371.50;4892835;28;122787;-71
2022/06/27 04:00:34;;;;;;;11.90;7.03;;;;;;;19.90;58.65;101386.38;4908620;28;118411;-71
2022/06/27 04:03:03;;;;;;;11.70;7.25;;;;;;;19.88;58.92;101382.97;4892718;28;118511;-71
2022/06/27 04:05:42;;;;;;;9.98;7.20;;;;;;;19.87;58.98;101375.00;4900063;28;123212;-68
2022/06/27 04:08:10;;;;;;;10.07;7.05;;;;;;;19.86;58.96;101368.78;4908238;28;124559;-68
2022/06/27 04:10:39;;;;;;;10.63;6.97;;;;;;;19.86;59.20;101376.84;4906887;28;118460;-68
2022/06/27 04:13:07;;;;;;;12.40;7.13;;;;;;;19.86;59.18;101384.91;4902023;28;118050;-69
2022/06/27 04:15:37;;;;;;;9.13;6.57;;;;;;;19.84;59.22;101387.69;4899567;28;124726;-69
2022/06/27 04:18:23;;;;;;;12.32;6.97;;;;;;;19.84;59.12;101394.91;4901534;28;124615;-68
2022/06/27 04:20:59;;;;;;;10.20;7.35;;;;;;;19.83;59.32;101393.19;4907791;28;120298;-68
2022/06/27 04:23:41;;;;;;;10.05;7.50;;;;;;;19.82;59.37;101395.03;4902863;28;119327;-69
2022/06/27 04:26:15;;;;;;;11.13;7.17;;;;;;;19.84;59.47;101408.38;4911201;28;126546;-70
2022/06/27 04:28:43;;;;;;;9.65;7.47;;;;;;;19.85;59.69;101399.31;4907038;28;124448;-72
2022/06/27 04:31:10;;;;;;;11.80;8.30;;;;;;;19.87;59.87;101381.22;4889245;28;120274;-71
2022/06/27 04:33:38;;;;;;;12.52;8.43;;;;;;;19.90;59.97;101375.63;4888614;28;119229;-70
2022/06/27 04:36:07;;;;;;;11.43;8.10;;;;;;;19.95;60.01;101388.75;4902351;28;123368;-70
2022/06/27 04:38:36;;;;;;;11.95;8.20;;;;;;;19.98;60.09;101373.19;4913416;28;123484;-70
2022/06/27 04:41:22;;;;;;;11.15;7.60;;;;;;;20.01;59.97;101362.22;4903247;28;120075;-70
2022/06/27 04:43:53;;;;;;;10.35;8.02;;;;;;;20.05;60.01;101352.09;4910913;28;119955;-70
2022/06/27 04:46:21;;;;;;;11.65;7.90;;;;;;;20.09;60.14;101352.72;4921542;28;123299;-69
2022/06/27 04:48:56;;;;;;;13.05;7.97;;;;;;;20.12;60.20;101357.88;4903139;28;124102;-69
2022/06/27 04:51:23;;;;;;;11.70;8.00;;;;;;;20.14;60.28;101356.75;4900308;28;119494;-69
2022/06/27 04:53:51;;;;;;;12.02;8.30;;;;;;;20.20;60.38;101358.13;4907491;28;118848;-70
2022/06/27 04:56:19;;;;;;;10.77;8.20;;;;;;;20.24;60.32;101340.75;4920977;28;123380;-69
2022/06/27 04:58:46;;;;;;;14.35;8.73;;;;;;;20.31;60.32;101320.47;4904689;28;123247;-69
2022/06/27 05:01:16;;;;;;;12.77;8.65;;;;;;;20.35;60.07;101337.25;4904726;28;118821;-70
2022/06/27 05:03:57;;;;;;;11.93;8.48;;;;;;;20.37;60.16;101363.03;4900016;28;118193;-69
2022/06/27 05:06:29;;;;;;;13.52;8.27;;;;;;;20.40;60.15;101357.44;4895793;28;125523;-68
2022/06/27 05:08:56;;;;;;;9.85;8.30;;;;;;;20.43;60.15;101343.72;4906871;28;123647;-68
2022/06/27 05:11:24;;;;;;;15.18;8.43;;;;;;;20.48;60.16;101347.91;4900257;28;119342;-68
2022/06/27 05:13:51;;;;;;;11.50;8.27;;;;;;;20.52;60.03;101349.34;4906399;28;119567;-69
2022/06/27 05:16:38;;;;;;;9.70;8.15;;;;;;;20.54;60.09;101342.88;4902721;28;125369;-69
2022/06/27 05:19:05;;;;;;;11.43;8.43;;;;;;;20.60;59.92;101346.94;4898336;28;123116;-70
2022/06/27 05:21:44;;;;;;;12.05;8.63;;;;;;;20.63;59.94;101341.31;4906719;28;120733;-70
2022/06/27 05:24:12;;;;;;;13.38;8.63;;;;;;;20.65;59.90;101328.59;4905219;28;119206;-70
2022/06/27 05:26:40;;;;;;;11.82;9.45;;;;;;;20.65;59.80;101333.97;4905226;28;123153;-69
2022/06/27 05:29:07;;;;;;;12.05;9.20;;;;;;;20.66;59.83;101341.06;4901849;28;123954;-69
2022/06/27 05:31:34;;;;;;;11.70;9.10;;;;;;;20.67;59.94;101337.41;4920268;28;118480;-70
2022/06/27 05:34:02;;;;;;;11.38;8.95;;;;;;;20.69;59.91;101340.81;4907240;28;118401;-69
2022/06/27 05:36:30;;;;;;;12.75;9.32;;;;;;;20.72;60.07;101345.97;4906354;28;124809;-70
2022/06/27 05:38:58;;;;;;;13.07;9.05;;;;;;;20.73;59.82;101346.81;4907181;28;123583;-70
2022/06/27 05:41:28;;;;;;;11.82;9.30;;;;;;;20.74;60.07;101343.16;4907195;28;118362;-70
2022/06/27 05:44:02;;;;;;;11.95;9.20;;;;;;;20.75;59.93;101340.31;4902147;28;119308;-70
2022/06/27 05:46:30;;;;;;;13.23;9.43;;;;;;;20.76;59.93;101350.13;4902635;28;123184;-69
2022/06/27 05:49:25;;;;;;;12.70;9.18;;;;;;;20.78;60.06;101388.56;4905998;28;123711;-70
2022/06/27 05:51:57;;;;;;;12.32;9.35;;;;;;;20.82;59.92;101420.63;4899376;28;119737;-69
2022/06/27 05:54:25;;;;;;;13.57;9.88;;;;;;;20.86;60.17;101422.09;4908726;28;118249;-71
2022/06/27 05:56:53;;;;;;;13.93;9.85;;;;;;;20.91;60.40;101411.81;4907215;28;124226;-70
2022/06/27 05:59:23;;;;;;;15.98;10.77;;;;;;;20.98;60.54;101421.09;4919145;28;123024;-70
2022/06/27 06:01:51;;;;;;;13.43;9.52;;;;;;;21.06;60.37;101429.44;4892381;28;118508;-69
2022/06/27 06:04:22;;;;;;;14.73;9.77;;;;;;;21.14;60.18;101442.28;4910629;28;118235;-69
2022/06/27 06:06:49;;;;;;;13.70;9.80;;;;;;;21.17;60.17;101448.28;4903862;28;124077;-69
2022/06/27 06:09:17;;;;;;;14.63;9.82;;;;;;;21.21;60.18;101432.75;4904895;28;123289;-70
2022/06/27 06:11:48;;;;;;;13.40;9.13;;;;;;;21.27;60.26;101431.38;4901738;28;120716;-68
2022/06/27 06:14:19;;;;;;;12.88;9.05;;;;;;;21.33;60.21;101447.03;4905228;28;119213;-68
2022/06/27 06:16:48;;;;;;;12.65;9.30;;;;;;;21.37;60.02;101459.28;4904661;28;125437;-70
2022/06/27 06:19:16;;;;;;;11.70;8.80;;;;;;;21.41;59.86;101466.13;4899618;28;124089;-70
2022/06/27 06:21:43;;;;;;;13.77;8.93;;;;;;;21.43;59.85;101464.16;4911309;28;118099;-69
2022/06/27 06:24:10;;;;;;;13.02;9.57;;;;;;;21.46;59.88;101461.28;4899392;28;118924;-70
2022/06/27 06:26:41;;;;;;;14.07;10.25;;;;;;;21.49;59.77;101462.84;4899758;28;124872;-70
2022/06/27 06:29:15;;;;;;;20.90;11.27;;;;;;;21.50;59.70;101457.34;4903754;28;123030;-70
2022/06/27 06:31:50;;;;;;;15.55;10.13;;;;;;;21.52;59.58;101441.03;4904874;28;118835;-70
2022/06/27 06:34:26;;;;;;;18.00;10.15;;;;;;;21.53;59.43;101448.13;4897957;28;118188;-70
2022/06/27 06:36:54;;;;;;;11.70;9.75;;;;;;;21.54;59.46;101471.41;4902982;28;124187;-70
2022/06/27 06:39:22;;;;;;;14.13;8.98;;;;;;;21.54;59.44;101493.00;4906650;28;124032;-70
2022/06/27 06:41:50;;;;;;;14.77;9.52;;;;;;;21.53;59.43;101497.53;4921154;28;118559;-70
2022/06/27 06:44:18;;;;;;;14.25;10.07;;;;;;;21.55;59.55;101489.31;4893983;28;118388;-70
2022/06/27 06:46:57;;;;;;;13.05;9.13;;;;;;;21.55;59.53;101484.78;4899833;28;124302;-67
2022/06/27 06:49:35;;;;;;;15.68;10.43;;;;;;;21.58;59.38;101479.13;4906283;28;126622;-68
2022/06/27 06:52:03;;;;;;;14.70;11.13;;;;;;;21.60;59.56;101464.69;4901172;28;118884;-68
2022/06/27 06:54:31;;;;;;;15.32;10.25;;;;;;;21.64;59.31;101455.34;4904822;28;119317;-67
2022/06/27 06:56:58;;;;;;;14.05;9.90;;;;;;;21.67;59.21;101433.53;4901211;28;125078;-68
2022/06/27 06:59:25;;;;;;;18.30;10.70;;;;;;;21.69;59.11;101415.38;4902615;28;123992;-67
2022/06/27 07:01:53;;;;;;;16.15;11.05;;;;;;;21.70;59.33;101395.50;4905771;28;121024;-68
2022/06/27 07:04:21;;;;;;;13.43;10.48;;;;;;;21.71;59.50;101381.06;4903300;28;120679;-67
2022/06/27 07:06:48;;;;;;;17.13;11.65;;;;;;;21.72;59.48;101369.31;4911148;28;124387;-68
2022/06/27 07:09:15;;;;;;;13.20;10.60;;;;;;;21.72;59.45;101372.00;4909239;28;124905;-68
2022/06/27 07:11:45;;;;;;;13.75;10.07;;;;;;;21.75;59.70;101387.91;4906053;28;119221;-68
2022/06/27 07:14:13;;;;;;;16.02;10.50;;;;;;;21.81;59.79;101400.88;4904797;28;119363;-68
2022/06/27 07:16:42;;;;;;;15.27;10.27;;;;;;;21.83;59.60;101412.41;4898350;28;124195;-68
2022/06/27 07:19:10;;;;;;;14.25;10.88;;;;;;;21.86;59.66;101422.91;4902630;28;123981;-68
2022/06/27 07:21:38;;;;;;;13.23;10.05;;;;;;;21.89;59.79;101417.28;4910151;28;120092;-68
2022/06/27 07:24:08;;;;;;;14.85;10.13;;;;;;;21.95;59.69;101422.16;4912883;28;119052;-68
2022/06/27 07:26:36;;;;;;;16.13;11.35;;;;;;;22.01;59.73;101398.34;4911102;28;122990;-68
2022/06/27 07:29:04;;;;;;;16.40;10.45;;;;;;;22.05;59.52;101384.47;4910273;28;123952;-67
2022/06/27 07:31:32;;;;;;;17.73;12.07;;;;;;;22.08;59.43;101394.16;4911954;28;119342;-68
2022/06/27 07:34:02;;;;;;;15.80;11.52;;;;;;;22.11;59.26;101415.44;4896603;28;119012;-68
2022/06/27 07:36:32;;;;;;;15.38;11.40;;;;;;;22.13;59.25;101435.94;4909997;28;124447;-67
2022/06/27 07:38:59;;;;;;;15.23;11.45;;;;;;;22.15;59.37;101438.47;4908583;28;123496;-68
2022/06/27 07:41:30;;;;;;;15.85;11.30;;;;;;;22.17;59.38;101437.38;4911080;28;119279;-68
2022/06/27 07:43:58;;;;;;;13.75;11.35;;;;;;;22.24;59.28;101453.91;4912069;28;119155;-67
2022/06/27 07:46:25;;;;;;;16.90;12.02;;;;;;;22.28;59.44;101436.50;4909422;28;123761;-68
2022/06/27 07:48:52;;;;;;;18.77;12.00;;;;;;;22.34;59.50;101433.28;4910066;28;124649;-67
2022/06/27 07:51:19;;;;;;;17.05;12.95;;;;;;;22.39;59.33;101423.94;4908984;28;120465;-68
2022/06/27 07:53:48;;;;;;;17.33;13.63;;;;;;;22.44;59.28;101433.34;4911229;28;118743;-68
2022/06/27 07:56:18;;;;;;;17.70;13.27;;;;;;;22.51;59.16;101444.47;4909026;28;123873;-69
2022/06/27 07:59:06;;;;;;;17.08;13.55;;;;;;;22.59;59.06;101447.38;4909736;28;123983;-69
2022/06/27 08:01:33;;;;;;;17.67;13.88;;;;;;;22.67;58.83;101461.03;4911021;28;118196;-69
2022/06/27 08:04:01;;;;;;;18.15;14.10;;;;;;;22.72;58.82;101464.22;4910114;28;118807;-69
2022/06/27 08:06:29;;;;;;;16.20;12.38;;;;;;;22.78;58.99;101481.72;4895573;28;125003;-69
2022/06/27 08:09:00;;;;;;;18.83;12.23;;;;;;;22.84;58.79;101496.53;4910105;28;123006;-69
2022/06/27 08:11:36;;;;;;;16.13;11.40;;;;;;;22.92;58.61;101515.63;4911645;28;119589;-69
2022/06/27 08:14:06;;;;;;;15.10;11.13;;;;;;;22.98;58.37;101522.34;4911756;28;120135;-69
2022/06/27 08:16:35;;;;;;;14.48;10.70;;;;;;;23.01;58.22;101522.94;4895872;28;124037;-70
2022/06/27 08:19:03;;;;;;;14.40;10.98;;;;;;;23.05;58.20;101513.59;4909243;28;125902;-69
2022/06/27 08:21:31;;;;;;;15.18;10.40;;;;;;;23.10;58.16;101511.38;4909526;28;119316;-69
2022/06/27 08:24:01;;;;;;;15.43;10.68;;;;;;;23.17;58.24;101532.44;4905831;28;119700;-69
2022/06/27 08:26:30;;;;;;;13.88;10.48;;;;;;;23.26;57.92;101531.63;4902870;28;124701;-69
2022/06/27 08:29:02;;;;;;;12.52;9.50;;;;;;;23.35;57.55;101519.16;4906471;28;124529;-69
2022/06/27 08:31:31;;;;;;;12.90;10.20;;;;;;;23.41;57.49;101495.13;4903316;28;119437;-69
2022/06/27 08:34:01;;;;;;;11.52;9.30;;;;;;;23.49;57.28;101500.72;4890289;28;119107;-69
2022/06/27 08:36:30;;;;;;;13.20;9.32;;;;;;;23.57;56.72;101504.59;4898788;28;123928;-69
2022/06/27 08:39:05;;;;;;;12.73;9.55;;;;;;;23.64;56.47;101519.25;4895303;28;124073;-69
2022/06/27 08:41:33;;;;;;;13.98;9.32;;;;;;;23.71;56.23;101520.41;4909240;28;120298;-69
2022/06/27 08:44:01;;;;;;;14.50;9.38;;;;;;;23.76;55.62;101528.97;4909304;28;120082;-69
2022/06/27 08:46:29;;;;;;;11.75;8.45;;;;;;;23.80;55.55;101533.13;4910203;28;124969;-69
2022/06/27 08:48:57;;;;;;;10.55;8.25;;;;;;;23.84;55.21;101547.25;4908505;28;124321;-69
2022/06/27 08:51:26;;;;;;;14.73;9.93;;;;;;;23.90;55.31;101541.28;4911349;28;119269;-69
2022/06/27 08:53:54;;;;;;;13.55;10.02;;;;;;;23.94;55.10;101542.72;4909291;28;119093;-69
2022/06/27 08:56:22;;;;;;;13.57;10.70;;;;;;;23.97;54.86;101542.44;4909848;28;123292;-69
2022/06/27 08:58:52;;;;;;;15.02;11.18;;;;;;;24.02;54.96;101528.50;4909296;28;124172;-69
2022/06/27 09:01:22;;;;;;;12.68;9.95;;;;;;;24.05;54.68;101517.38;4908216;28;119720;-69
2022/06/27 09:04:06;;;;;;;12.73;10.23;;;;;;;24.08;54.75;101527.94;4907360;28;119381;-69
2022/06/27 09:06:53;;;;;;;13.65;11.00;;;;;;;24.10;54.50;101525.94;4907082;28;124739;-69
2022/06/27 09:09:24;;;;;;;12.48;9.43;;;;;;;24.17;54.29;101531.66;4909007;28;123896;-69
2022/06/27 09:11:51;;;;;;;11.80;9.07;;;;;;;24.20;54.17;101526.78;4909916;28;119256;-69
2022/06/27 09:14:43;;;;;;;12.75;9.15;;;;;;;24.24;54.21;101538.19;4908551;28;118785;-69
2022/06/27 09:17:15;;;;;;;13.07;8.65;;;;;;;24.29;53.93;101541.34;4905481;28;124161;-69
2022/06/27 09:19:55;;;;;;;12.85;9.18;;;;;;;24.35;53.87;101545.31;4908951;28;123790;-69
2022/06/27 09:22:25;;;;;;;13.23;9.95;;;;;;;24.39;53.80;101542.22;4897672;28;120255;-69
2022/06/27 09:25:12;;;;;;;11.82;9.65;;;;;;;24.46;53.82;101539.78;4908851;28;119096;-69
2022/06/27 09:27:46;;;;;;;12.55;9.18;;;;;;;24.51;53.57;101529.38;4908498;28;125225;-69
2022/06/27 09:30:22;;;;;;;10.63;8.63;;;;;;;24.57;53.47;101534.22;4910241;28;123775;-69
2022/06/27 09:33:00;;;;;;;11.30;8.48;;;;;;;24.58;52.78;101525.13;4909278;28;119596;-69
2022/06/27 09:35:33;;;;;;;10.90;8.13;;;;;;;24.58;52.82;101533.25;4908208;28;120115;-69
2022/06/27 09:38:07;;;;;;;12.85;8.43;;;;;;;24.59;52.71;101534.94;4907490;28;124102;-69
2022/06/27 09:40:36;;;;;;;12.48;8.55;;;;;;;24.62;52.46;101547.34;4910440;28;123818;-69
2022/06/27 09:43:09;;;;;;;11.52;8.43;;;;;;;24.64;52.00;101543.50;4903937;28;118424;-69
2022/06/27 09:45:37;;;;;;;11.57;8.88;;;;;;;24.64;52.26;101540.78;4903262;28;119039;-69
2022/06/27 09:48:14;;;;;;;12.07;8.85;;;;;;;24.67;52.31;101556.75;4901899;28;124824;-69
2022/06/27 09:50:43;;;;;;;12.57;8.60;;;;;;;24.72;52.36;101558.19;4891868;28;123720;-69
2022/06/27 09:53:11;;;;;;;11.80;9.00;;;;;;;24.73;52.26;101560.72;4894762;28;119204;-69
2022/06/27 09:55:42;;;;;;;11.95;8.05;;;;;;;24.77;52.25;101550.47;4907991;28;119190;-69
2022/06/27 09:58:11;;;;;;;10.93;7.28;;;;;;;24.83;52.25;101529.06;4894836;28;124039;-69
2022/06/27 10:00:41;;;;;;;10.88;8.15;;;;;;;24.93;52.10;101529.03;4907304;28;123694;-68
2022/06/27 10:03:08;;;;;;;11.73;8.45;;;;;;;25.00;51.62;101519.31;4907291;28;119468;-69
2022/06/27 10:05:43;;;;;;;9.85;7.80;;;;;;;25.06;51.72;101524.16;4908068;28;119663;-69
2022/06/27 10:08:12;;;;;;;11.60;7.82;;;;;;;25.13;51.75;101526.25;4907654;28;123832;-69
2022/06/27 10:11:08;;;;;;;9.60;7.63;;;;;;;25.20;51.12;101530.09;4907736;28;123676;-69
2022/06/27 10:13:39;;;;;;;10.48;7.72;;;;;;;25.24;51.27;101526.13;4905935;28;119149;-69
2022/06/27 10:16:12;;;;;;;13.20;8.13;;;;;;;25.29;51.20;101533.81;4904557;28;118759;-69
2022/06/27 10:18:59;;;;;;;13.43;9.77;;;;;;;25.32;50.85;101523.53;4906403;28;124714;-72
2022/06/27 10:21:30;;;;;;;12.45;7.43;;;;;;;25.36;50.03;101514.09;4921026;28;124145;-69
2022/06/27 10:24:19;;;;;;;10.68;7.72;;;;;;;25.39;49.30;101507.50;4895699;28;119960;-70
2022/06/27 10:26:48;;;;;;;11.75;7.57;;;;;;;25.40;49.07;101509.22;4904934;28;119944;-69
2022/06/27 10:29:27;;;;;;;11.30;7.53;;;;;;;25.43;48.73;101508.94;4895371;28;123860;-69
2022/06/27 10:31:56;;;;;;;10.65;7.82;;;;;;;25.47;48.82;101504.03;4924281;28;124042;-70
2022/06/27 10:34:39;;;;;;;11.55;8.43;;;;;;;25.53;49.16;101498.03;4895342;28;120511;-69
2022/06/27 10:37:24;;;;;;;11.50;7.55;;;;;;;25.59;48.52;101502.84;4893046;28;119880;-70
2022/06/27 10:40:11;;;;;;;11.57;6.70;;;;;;;25.62;48.55;101497.13;4896913;28;124852;-71
2022/06/27 10:42:55;;;;;;;7.63;5.60;;;;;;;25.61;48.16;101484.56;4892913;28;123986;-71
2022/06/27 10:45:28;;;;;;;15.60;10.07;;;;;;;25.62;48.20;101480.84;4891383;28;119338;-71
2022/06/27 10:48:02;;;;;;;10.95;6.40;;;;;;;25.64;48.02;101484.25;4894243;28;118691;-71
2022/06/27 10:50:40;;;;;;;8.43;6.15;;;;;;;25.71;47.84;101490.78;4898895;28;123952;-71
2022/06/27 10:53:23;;;;;;;8.15;5.72;;;;;;;25.76;48.12;101495.75;4899646;28;123964;-70
2022/06/27 10:55:52;;;;;;;8.25;5.65;;;;;;;25.81;48.39;101507.84;4897236;28;119978;-70
2022/06/27 10:58:29;;;;;;;11.10;6.60;;;;;;;25.90;48.05;101505.22;4897853;28;118695;-72
2022/06/27 11:01:18;;;;;;;8.13;5.75;;;;;;;25.99;47.85;101516.06;4919492;28;122987;-70
2022/06/27 11:03:46;;;;;;;11.18;6.80;;;;;;;26.10;47.34;101517.66;4894775;28;123798;-70
2022/06/27 11:06:14;;;;;;;7.28;5.70;;;;;;;26.17;46.87;101513.34;4898751;28;119150;-71
2022/06/27 11:08:44;;;;;;;9.90;6.45;;;;;;;26.20;46.83;101507.59;4898461;28;119522;-70
2022/06/27 11:11:19;;;;;;;7.65;5.53;;;;;;;26.28;46.68;101508.69;4899748;28;123912;-69
2022/06/27 11:13:55;;;;;;;7.93;4.70;;;;;;;26.34;46.43;101514.34;4902129;28;124677;-69
2022/06/27 11:16:33;;;;;;;8.40;5.32;;;;;;;26.38;46.83;101509.44;4900662;28;121181;-69
2022/06/27 11:19:03;;;;;;;10.05;6.32;;;;;;;26.45;46.23;101515.97;4907252;28;120006;-69
2022/06/27 11:21:36;;;;;;;9.95;6.35;;;;;;;26.44;45.40;101525.13;4908004;28;123969;-70
2022/06/27 11:24:09;;;;;;;8.80;6.15;;;;;;;26.40;45.74;101534.59;4909207;28;125151;-69
2022/06/27 11:26:47;;;;;;;8.00;5.78;;;;;;;26.37;46.09;101529.47;4896441;28;119921;-69